createdAt,value
2019-03-11T00:00:37.770Z,93.50
2019-03-11T00:03:09.146Z,93.60
2019-03-11T00:05:40.589Z,93.40
2019-03-11T00:08:11.817Z,93.50
2019-03-11T00:10:43.089Z,93.60
2019-03-11T00:13:14.319Z,93.70
2019-03-11T00:15:45.587Z,93.80
2019-03-11T00:18:16.835Z,93.80
2019-03-11T00:20:48.117Z,93.40
2019-03-11T00:23:19.348Z,93.60
2019-03-11T00:25:50.728Z,93.60
2019-03-11T00:28:22.017Z,93.80
2019-03-11T00:30:53.377Z,93.80
2019-03-11T00:33:24.745Z,93.70
2019-03-11T00:35:56.057Z,94.10
2019-03-11T00:38:27.286Z,94.10
2019-03-11T00:40:58.635Z,94.20
2019-03-11T00:43:29.860Z,94.40
2019-03-11T00:46:01.541Z,94.30
2019-03-11T00:48:32.769Z,94.70
2019-03-11T00:51:04.132Z,94.40
2019-03-11T00:53:35.533Z,94.40
2019-03-11T00:56:06.879Z,94.20
2019-03-11T00:58:38.177Z,94.20
2019-03-11T01:01:09.548Z,93.80
2019-03-11T01:03:40.787Z,93.90
2019-03-11T01:06:12.204Z,93.70
2019-03-11T01:08:43.451Z,93.70
2019-03-11T01:11:14.801Z,93.70
2019-03-11T01:13:46.036Z,93.60
2019-03-11T01:16:17.377Z,93.80
2019-03-11T01:18:48.719Z,93.70
2019-03-11T01:21:19.954Z,93.70
2019-03-11T01:23:51.315Z,93.90
2019-03-11T01:26:22.542Z,94.00
2019-03-11T01:28:53.827Z,94.00
2019-03-11T01:31:25.128Z,94.00
2019-03-11T01:33:56.365Z,94.10
2019-03-11T01:36:27.667Z,94.10
2019-03-11T01:38:58.889Z,94.30
2019-03-11T01:41:30.220Z,94.20
2019-03-11T01:44:01.485Z,94.10
2019-03-11T01:46:32.799Z,94.30
2019-03-11T01:49:05.157Z,94.20
2019-03-11T01:51:36.394Z,94.10
2019-03-11T01:54:07.669Z,94.20
2019-03-11T01:56:38.973Z,94.10
2019-03-11T01:59:10.349Z,94.00
2019-03-11T02:01:41.647Z,94.20
2019-03-11T02:04:12.849Z,94.30
2019-03-11T02:06:44.212Z,94.00
2019-03-11T02:09:15.505Z,94.50
2019-03-11T02:11:50.449Z,94.20
2019-03-11T02:14:22.749Z,94.30
2019-03-11T02:16:54.091Z,94.50
2019-03-11T02:19:25.323Z,94.30
2019-03-11T02:21:56.637Z,94.30
2019-03-11T02:24:27.922Z,94.10
2019-03-11T02:26:59.330Z,94.30
2019-03-11T02:29:30.564Z,94.10
2019-03-11T02:32:01.920Z,94.10
2019-03-11T02:34:33.144Z,94.20
2019-03-11T02:37:05.623Z,94.00
2019-03-11T02:39:36.825Z,94.10
2019-03-11T02:42:08.773Z,93.90
2019-03-11T02:44:40.200Z,94.10
2019-03-11T02:47:11.425Z,94.00
2019-03-11T02:49:44.146Z,94.00
2019-03-11T02:52:16.538Z,94.00
2019-03-11T02:54:47.837Z,94.20
2019-03-11T02:57:25.004Z,94.20
2019-03-11T02:59:56.299Z,94.50
2019-03-11T03:02:29.225Z,94.70
2019-03-11T03:05:04.879Z,94.40
2019-03-11T03:07:36.187Z,94.70
2019-03-11T03:10:10.540Z,94.90
2019-03-11T03:12:43.374Z,94.80
2019-03-11T03:15:15.168Z,94.90
2019-03-11T03:17:46.395Z,95.20
2019-03-11T03:20:18.356Z,95.50
2019-03-11T03:22:49.678Z,95.60
2019-03-11T03:25:33.231Z,95.50
2019-03-11T03:27:54.212Z,95.40
2019-03-11T03:30:26.716Z,95.80
2019-03-11T03:32:58.314Z,95.70
2019-03-11T03:35:29.676Z,95.70
2019-03-11T03:38:01.013Z,95.60
2019-03-11T03:40:32.226Z,95.80
2019-03-11T03:43:05.493Z,95.80
2019-03-11T03:45:41.249Z,96.00
2019-03-11T03:48:12.653Z,95.70
2019-03-11T03:50:44.013Z,95.90
2019-03-11T03:53:15.350Z,95.80
2019-03-11T03:55:53.751Z,96.10
2019-03-11T03:58:26.151Z,96.20
2019-03-11T04:01:16.570Z,96.40
2019-03-11T04:03:47.888Z,97.00
2019-03-11T04:06:19.117Z,97.80
2019-03-11T04:08:53.922Z,98.20
2019-03-11T04:11:25.281Z,98.80
2019-03-11T04:13:56.584Z,99.80
2019-03-11T04:16:27.890Z,99.90
2019-03-11T04:18:59.421Z,99.90
2019-03-11T04:21:30.701Z,99.90
2019-03-11T04:24:02.297Z,99.90
2019-03-11T04:26:33.661Z,99.90
2019-03-11T04:29:05.979Z,99.90
2019-03-11T04:31:37.301Z,99.90
2019-03-11T04:34:08.555Z,99.90
2019-03-11T04:36:39.984Z,99.90
2019-03-11T04:39:11.197Z,99.90
2019-03-11T04:41:42.470Z,99.90
2019-03-11T04:44:13.684Z,99.90
2019-03-11T04:46:44.954Z,99.90
2019-03-11T04:49:16.172Z,99.90
2019-03-11T04:51:47.454Z,99.90
2019-03-11T04:54:18.679Z,99.90
2019-03-11T04:56:50.020Z,99.90
2019-03-11T04:59:21.308Z,99.90
2019-03-11T05:01:52.594Z,99.90
2019-03-11T05:04:23.817Z,99.90
2019-03-11T05:06:55.042Z,99.90
2019-03-11T05:09:26.358Z,99.90
2019-03-11T05:11:57.576Z,99.90
2019-03-11T05:14:28.903Z,99.90
2019-03-11T05:17:00.122Z,99.90
2019-03-11T05:19:32.691Z,99.90
2019-03-11T05:22:03.977Z,99.90
2019-03-11T05:24:35.248Z,99.90
2019-03-11T05:27:06.464Z,99.90
2019-03-11T05:29:37.810Z,99.90
2019-03-11T05:32:09.025Z,99.90
2019-03-11T05:34:42.686Z,99.90
2019-03-11T05:37:18.218Z,99.90
2019-03-11T05:39:49.503Z,99.90
2019-03-11T05:42:20.810Z,99.90
2019-03-11T05:44:53.132Z,99.90
2019-03-11T05:47:24.348Z,99.90
2019-03-11T05:49:55.688Z,99.90
2019-03-11T05:52:26.905Z,99.90
2019-03-11T05:54:58.186Z,99.90
2019-03-11T05:57:29.486Z,99.90
2019-03-11T06:00:00.755Z,99.90
2019-03-11T06:02:32.037Z,99.90
2019-03-11T06:05:04.775Z,99.90
2019-03-11T06:07:36.075Z,99.90
2019-03-11T06:10:15.132Z,99.90
2019-03-11T06:12:46.364Z,99.90
2019-03-11T06:15:17.766Z,99.90
2019-03-11T06:17:49.515Z,99.90
2019-03-11T06:20:40.873Z,99.90
2019-03-11T06:23:13.789Z,99.90
2019-03-11T06:25:45.465Z,99.90
2019-03-11T06:28:16.679Z,99.90
2019-03-11T06:30:48.005Z,99.90
2019-03-11T06:33:19.267Z,99.90
2019-03-11T06:35:50.487Z,99.60
2019-03-11T06:38:21.758Z,99.20
2019-03-11T06:40:53.064Z,99.90
2019-03-11T06:43:24.439Z,99.90
2019-03-11T06:45:55.711Z,99.90
2019-03-11T06:48:27.017Z,99.90
2019-03-11T06:50:58.233Z,99.90
2019-03-11T06:53:29.511Z,99.90
2019-03-11T06:56:00.791Z,99.90
2019-03-11T06:58:34.319Z,99.90
2019-03-11T07:01:05.613Z,99.90
2019-03-11T07:03:36.947Z,99.90
2019-03-11T07:06:08.161Z,99.90
2019-03-11T07:08:39.374Z,99.90
2019-03-11T07:11:10.733Z,99.90
2019-03-11T07:13:41.996Z,99.90
2019-03-11T07:16:13.458Z,99.90
2019-03-11T07:18:44.680Z,99.90
2019-03-11T07:21:15.969Z,99.90
2019-03-11T07:23:47.209Z,99.90
2019-03-11T07:26:18.473Z,99.90
2019-03-11T07:28:49.706Z,99.90
2019-03-11T07:31:22.057Z,99.90
2019-03-11T07:33:53.278Z,99.90
2019-03-11T07:36:24.554Z,99.90
2019-03-11T07:38:55.828Z,99.90
2019-03-11T07:41:27.095Z,99.90
2019-03-11T07:43:58.311Z,99.80
2019-03-11T07:46:29.579Z,99.50
2019-03-11T07:49:00.805Z,99.10
2019-03-11T07:51:32.074Z,99.00
2019-03-11T07:54:03.361Z,98.40
2019-03-11T07:56:35.839Z,98.90
2019-03-11T07:59:08.126Z,98.60
2019-03-11T08:01:39.394Z,98.20
2019-03-11T08:04:10.682Z,98.30
2019-03-11T08:06:41.950Z,98.10
2019-03-11T08:09:13.169Z,98.30
2019-03-11T08:11:44.580Z,97.70
2019-03-11T08:14:15.802Z,97.60
2019-03-11T08:16:47.155Z,97.60
2019-03-11T08:19:18.368Z,97.40
2019-03-11T08:21:49.710Z,97.30
2019-03-11T08:24:21.001Z,96.60
2019-03-11T08:26:52.275Z,96.50
2019-03-11T08:29:23.558Z,97.50
2019-03-11T08:31:54.825Z,96.50
2019-03-11T08:34:26.110Z,96.30
2019-03-11T08:36:57.395Z,95.40
2019-03-11T08:39:28.614Z,95.00
2019-03-11T08:41:59.951Z,94.70
2019-03-11T08:44:31.170Z,94.00
2019-03-11T08:47:02.533Z,94.20
2019-03-11T08:49:33.826Z,93.10
2019-03-11T08:52:05.540Z,93.20
2019-03-11T08:54:36.938Z,92.20
2019-03-11T08:57:08.206Z,93.50
2019-03-11T08:59:39.436Z,92.40
2019-03-11T09:02:10.814Z,93.20
2019-03-11T09:04:42.101Z,91.60
2019-03-11T09:07:13.379Z,92.10
2019-03-11T09:09:44.606Z,91.40
2019-03-11T09:12:15.952Z,92.40
2019-03-11T09:14:47.242Z,91.80
2019-03-11T09:17:18.512Z,90.90
2019-03-11T09:19:49.727Z,90.40
2019-03-11T09:22:21.166Z,89.90
2019-03-11T09:24:52.456Z,90.50
2019-03-11T09:27:23.721Z,91.60
2019-03-11T09:29:54.990Z,90.30
2019-03-11T09:32:26.277Z,90.90
2019-03-11T09:34:57.709Z,90.40
2019-03-11T09:37:28.932Z,90.50
2019-03-11T09:40:01.305Z,89.70
2019-03-11T09:42:34.015Z,86.00
2019-03-11T09:45:10.448Z,89.20
2019-03-11T09:47:41.745Z,90.40
2019-03-11T09:50:17.772Z,88.70
2019-03-11T09:52:49.121Z,88.30
2019-03-11T09:55:23.419Z,85.70
2019-03-11T09:57:54.760Z,83.10
2019-03-11T10:00:31.499Z,85.00
2019-03-11T10:03:02.842Z,86.50
2019-03-11T10:05:34.065Z,87.50
2019-03-11T10:08:06.497Z,87.10
2019-03-11T10:10:37.712Z,88.10
2019-03-11T10:13:09.046Z,83.20
2019-03-11T10:15:40.265Z,84.50
2019-03-11T10:18:11.611Z,82.40
2019-03-11T10:20:42.926Z,80.30
2019-03-11T10:23:14.218Z,78.60
2019-03-11T10:25:45.438Z,81.60
2019-03-11T10:28:16.774Z,80.40
2019-03-11T10:30:48.061Z,80.00
2019-03-11T10:33:19.329Z,78.60
2019-03-11T10:35:50.544Z,80.30
2019-03-11T10:40:52.117Z,81.80
2019-03-11T10:43:24.518Z,79.80
2019-03-11T10:45:55.792Z,82.70
2019-03-11T10:48:36.609Z,83.20
2019-03-11T10:51:00.278Z,81.30
2019-03-11T10:53:31.585Z,81.10
2019-03-11T10:56:03.042Z,78.30
2019-03-11T10:58:34.330Z,80.20
2019-03-11T11:01:06.208Z,80.00
2019-03-11T11:03:37.500Z,82.10
2019-03-11T11:06:08.776Z,80.60
2019-03-11T11:08:40.068Z,81.60
2019-03-11T11:11:11.356Z,80.90
2019-03-11T11:13:42.722Z,78.40
2019-03-11T11:16:14.078Z,81.20
2019-03-11T11:18:45.357Z,76.80
2019-03-11T11:21:16.657Z,75.30
2019-03-11T11:23:47.999Z,77.70
2019-03-11T11:26:19.357Z,76.50
2019-03-11T11:28:50.672Z,74.70
2019-03-11T11:31:21.947Z,77.70
2019-03-11T11:33:53.209Z,73.70
2019-03-11T11:36:24.479Z,78.00
2019-03-11T11:38:55.785Z,76.80
2019-03-11T11:41:27.201Z,74.60
2019-03-11T11:43:58.421Z,74.50
2019-03-11T11:46:29.779Z,74.60
2019-03-11T11:49:02.065Z,75.40
2019-03-11T11:51:33.346Z,77.90
2019-03-11T11:54:04.650Z,74.90
2019-03-11T11:56:35.906Z,78.40
2019-03-11T11:59:07.200Z,77.80
2019-03-11T12:01:38.479Z,76.10
2019-03-11T12:04:09.701Z,79.00
2019-03-11T12:06:40.993Z,77.20
2019-03-11T12:09:12.226Z,79.90
2019-03-11T12:11:44.282Z,78.30
2019-03-11T12:14:15.540Z,83.20
2019-03-11T12:16:46.835Z,76.50
2019-03-11T12:19:18.443Z,74.20
2019-03-11T12:21:49.659Z,74.20
2019-03-11T12:24:20.992Z,76.30
2019-03-11T12:26:52.212Z,77.10
2019-03-11T12:29:23.552Z,76.70
2019-03-11T12:31:54.787Z,76.80
2019-03-11T12:34:26.077Z,79.30
2019-03-11T12:36:57.412Z,76.90
2019-03-11T12:39:29.834Z,77.00
2019-03-11T12:42:01.130Z,78.60
2019-03-11T12:44:32.401Z,79.20
2019-03-11T12:47:03.753Z,74.40
2019-03-11T12:49:35.039Z,75.60
2019-03-11T12:52:06.259Z,74.00
2019-03-11T12:54:37.580Z,75.60
2019-03-11T12:57:08.958Z,77.60
2019-03-11T12:59:40.934Z,77.90
2019-03-11T13:02:12.601Z,79.10
2019-03-11T13:04:43.831Z,74.80
2019-03-11T13:07:15.093Z,77.20
2019-03-11T13:09:47.096Z,78.10
2019-03-11T13:12:18.610Z,78.60
2019-03-11T13:14:50.109Z,77.10
2019-03-11T13:17:21.299Z,76.40
2019-03-11T13:19:56.767Z,75.50
2019-03-11T13:22:28.257Z,72.90
2019-03-11T13:24:59.554Z,74.20
2019-03-11T13:27:32.479Z,76.60
2019-03-11T13:30:05.760Z,75.00
2019-03-11T13:32:37.527Z,72.40
2019-03-11T13:35:11.769Z,72.50
2019-03-11T13:37:43.050Z,69.90
2019-03-11T13:40:15.870Z,72.30
2019-03-11T13:42:47.167Z,71.80
2019-03-11T13:45:20.211Z,71.20
2019-03-11T13:47:51.499Z,74.50
2019-03-11T13:50:22.736Z,71.10
2019-03-11T13:52:54.136Z,74.30
2019-03-11T13:55:25.438Z,73.40
2019-03-11T13:57:56.817Z,70.30
2019-03-11T14:00:28.127Z,72.10
2019-03-11T14:03:02.570Z,71.60
2019-03-11T14:05:45.891Z,68.30
2019-03-11T14:08:17.189Z,71.50
2019-03-11T14:10:48.529Z,70.50
2019-03-11T14:13:19.822Z,75.10
2019-03-11T14:15:51.236Z,81.80
2019-03-11T14:18:27.241Z,86.20
2019-03-11T14:20:58.525Z,87.90
2019-03-11T14:23:32.507Z,85.10
2019-03-11T14:26:11.766Z,85.90
2019-03-11T14:28:43.119Z,87.00
2019-03-11T14:31:24.369Z,83.90
2019-03-11T14:33:55.590Z,79.80
2019-03-11T14:36:37.978Z,79.50
2019-03-11T14:39:27.423Z,78.70
2019-03-11T14:42:00.290Z,79.50
2019-03-11T14:44:33.970Z,78.20
2019-03-11T14:47:05.750Z,79.00
2019-03-11T14:49:38.914Z,79.00
2019-03-11T14:52:10.162Z,78.50
2019-03-11T14:54:44.486Z,80.30
2019-03-11T14:57:15.794Z,79.40
2019-03-11T14:59:47.111Z,78.40
2019-03-11T15:02:18.420Z,77.80
2019-03-11T15:04:51.096Z,81.30
2019-03-11T15:07:22.827Z,79.80
2019-03-11T15:09:58.693Z,79.20
2019-03-11T15:12:29.989Z,77.90
2019-03-11T15:15:01.210Z,78.40
2019-03-11T15:17:34.397Z,80.90
2019-03-11T15:20:08.333Z,80.00
2019-03-11T15:22:39.623Z,79.30
2019-03-11T15:25:14.162Z,80.60
2019-03-11T15:27:45.636Z,80.10
2019-03-11T15:30:24.565Z,81.20
2019-03-11T15:32:58.627Z,81.50
2019-03-11T15:35:29.944Z,78.40
2019-03-11T15:38:01.249Z,76.90
2019-03-11T15:40:32.659Z,78.60
2019-03-11T15:43:06.310Z,76.90
2019-03-11T15:45:39.259Z,76.40
2019-03-11T15:48:17.793Z,77.20
2019-03-11T15:50:49.197Z,81.50
2019-03-11T15:53:20.528Z,82.20
2019-03-11T15:55:51.945Z,82.60
2019-03-11T15:58:23.220Z,78.40
2019-03-11T16:00:54.566Z,80.40
2019-03-11T16:03:35.911Z,81.50
2019-03-11T16:06:00.155Z,80.80
2019-03-11T16:08:32.229Z,80.70
2019-03-11T16:11:06.546Z,78.90
2019-03-11T16:13:38.012Z,79.80
2019-03-11T16:16:09.392Z,80.10
2019-03-11T16:18:40.792Z,81.50
2019-03-11T16:21:12.143Z,81.60
2019-03-11T16:23:43.428Z,82.20
2019-03-11T16:26:14.766Z,81.80
2019-03-11T16:28:51.712Z,81.20
2019-03-11T16:31:30.206Z,80.70
2019-03-11T16:34:01.418Z,80.40
2019-03-11T16:36:32.696Z,79.20
2019-03-11T16:39:04.832Z,80.80
2019-03-11T16:41:37.876Z,80.50
2019-03-11T16:44:19.837Z,80.50
2019-03-11T16:46:51.121Z,81.10
2019-03-11T16:49:31.138Z,80.00
2019-03-11T16:52:03.529Z,80.80
2019-03-11T16:54:34.819Z,81.60
2019-03-11T16:57:12.927Z,82.30
2019-03-11T16:59:44.220Z,82.00
2019-03-11T17:02:15.610Z,81.90
2019-03-11T17:04:46.949Z,85.90
2019-03-11T17:07:18.202Z,83.40
2019-03-11T17:09:49.615Z,83.90
2019-03-11T17:12:20.913Z,83.60
2019-03-11T17:14:55.024Z,85.50
2019-03-11T17:17:28.002Z,83.70
2019-03-11T17:20:00.286Z,83.60
2019-03-11T17:22:31.852Z,83.50
2019-03-11T17:25:03.267Z,84.50
2019-03-11T17:27:34.468Z,84.80
2019-03-11T17:30:13.409Z,85.30
2019-03-11T17:32:44.904Z,87.20
2019-03-11T17:35:17.280Z,88.70
2019-03-11T17:37:48.881Z,88.70
2019-03-11T17:40:21.927Z,88.00
2019-03-11T17:42:53.619Z,87.80
2019-03-11T17:45:25.045Z,88.30
2019-03-11T17:47:56.350Z,88.40
2019-03-11T17:50:27.738Z,89.10
2019-03-11T17:53:01.465Z,89.60
2019-03-11T17:55:32.891Z,90.00
2019-03-11T17:58:04.369Z,90.50
2019-03-11T18:00:54.555Z,90.60
2019-03-11T18:03:16.446Z,91.00
2019-03-11T18:05:47.889Z,91.60
2019-03-11T18:08:20.747Z,91.30
2019-03-11T18:10:52.058Z,91.50
2019-03-11T18:13:23.317Z,91.40
2019-03-11T18:15:54.752Z,91.30
2019-03-11T18:18:32.972Z,91.40
2019-03-11T18:20:59.878Z,91.80
2019-03-11T18:23:32.323Z,92.60
2019-03-11T18:26:03.550Z,92.50
2019-03-11T18:28:34.847Z,92.30
2019-03-11T18:31:06.399Z,92.10
2019-03-11T18:33:47.440Z,92.20
2019-03-11T18:36:19.559Z,92.20
2019-03-11T18:38:50.957Z,92.30
2019-03-11T18:41:22.401Z,92.10
2019-03-11T18:43:53.696Z,92.40
2019-03-11T18:46:24.998Z,92.60
2019-03-11T18:48:56.209Z,92.60
2019-03-11T18:51:27.458Z,92.30
2019-03-11T18:54:01.405Z,92.20
2019-03-11T18:56:35.943Z,92.30
2019-03-11T18:59:12.011Z,92.30
2019-03-11T19:01:43.734Z,92.40
2019-03-11T19:04:15.001Z,92.50
2019-03-11T19:06:46.876Z,92.50
2019-03-11T19:09:18.382Z,92.40
2019-03-11T19:11:50.133Z,92.70
2019-03-11T19:14:21.522Z,91.70
2019-03-11T19:16:52.855Z,91.90
2019-03-11T19:19:24.225Z,91.90
2019-03-11T19:21:55.552Z,91.90
2019-03-11T19:24:26.889Z,92.00
2019-03-11T19:26:58.252Z,91.90
2019-03-11T19:29:29.479Z,92.50
2019-03-11T19:32:02.943Z,92.70
2019-03-11T19:34:34.304Z,92.40
2019-03-11T19:37:05.829Z,92.50
2019-03-11T19:39:37.089Z,92.80
2019-03-11T19:42:08.662Z,92.50
2019-03-11T19:44:39.912Z,92.40
2019-03-11T19:47:11.331Z,92.60
2019-03-11T19:49:42.907Z,92.50
2019-03-11T19:52:14.293Z,92.40
2019-03-11T19:54:45.793Z,92.80
2019-03-11T19:57:23.262Z,92.50
2019-03-11T19:59:54.508Z,92.70
2019-03-11T20:02:27.879Z,92.70
2019-03-11T20:04:59.352Z,92.70
2019-03-11T20:07:30.807Z,92.90
2019-03-11T20:10:02.064Z,93.30
2019-03-11T20:12:37.683Z,93.20
2019-03-11T20:15:13.478Z,93.20
2019-03-11T20:17:49.477Z,93.20
2019-03-11T20:20:21.579Z,93.20
2019-03-11T20:22:53.794Z,93.10
2019-03-11T20:25:34.675Z,93.10
2019-03-11T20:28:07.235Z,93.00
2019-03-11T20:30:38.432Z,92.90
2019-03-11T20:33:10.756Z,92.70
2019-03-11T20:36:01.066Z,93.00
2019-03-11T20:38:33.767Z,93.10
2019-03-11T20:41:05.201Z,92.90
2019-03-11T20:43:36.596Z,93.10
2019-03-11T20:46:08.030Z,93.00
2019-03-11T20:48:39.387Z,92.90
2019-03-11T20:51:10.904Z,92.90
2019-03-11T20:53:43.951Z,93.00
2019-03-11T20:56:16.305Z,93.00
2019-03-11T20:58:47.714Z,92.70
2019-03-11T21:01:18.923Z,92.60
2019-03-11T21:03:51.383Z,92.60
2019-03-11T21:06:31.961Z,92.60
2019-03-11T21:09:08.229Z,92.70
2019-03-11T21:11:41.249Z,92.80
2019-03-11T21:14:12.678Z,93.10
2019-03-11T21:16:43.981Z,93.10
2019-03-11T21:19:15.398Z,92.90
2019-03-11T21:21:46.680Z,93.10
2019-03-11T21:24:19.297Z,93.50
2019-03-11T21:26:50.838Z,93.30
2019-03-11T21:29:22.226Z,93.30
2019-03-11T21:31:53.596Z,93.20
2019-03-11T21:34:25.818Z,93.50
2019-03-11T21:36:57.116Z,93.20
2019-03-11T21:39:28.574Z,93.20
2019-03-11T21:41:59.825Z,93.00
2019-03-11T21:44:31.226Z,93.10
2019-03-11T21:47:02.798Z,93.20
2019-03-11T21:49:34.112Z,93.10
2019-03-11T21:52:05.442Z,93.30
2019-03-11T21:54:38.524Z,93.40
2019-03-11T21:57:09.811Z,93.10
2019-03-11T21:59:41.348Z,93.20
2019-03-11T22:02:12.736Z,93.20
2019-03-11T22:04:44.006Z,93.40
2019-03-11T22:07:15.282Z,93.60
2019-03-11T22:09:47.751Z,93.70
2019-03-11T22:12:18.993Z,94.00
2019-03-11T22:14:50.325Z,93.70
2019-03-11T22:17:21.651Z,94.00
2019-03-11T22:19:52.916Z,93.90
2019-03-11T22:22:24.283Z,94.20
2019-03-11T22:24:55.644Z,94.10
2019-03-11T22:27:26.930Z,94.20
2019-03-11T22:29:58.342Z,94.20
2019-03-11T22:32:29.738Z,94.40
2019-03-11T22:35:12.511Z,94.70
2019-03-11T22:37:45.367Z,94.40
2019-03-11T22:40:18.249Z,94.60
2019-03-11T22:42:49.920Z,94.70
2019-03-11T22:45:22.472Z,94.80
2019-03-11T22:47:54.078Z,94.80
2019-03-11T22:50:26.298Z,94.70
2019-03-11T22:52:57.577Z,94.80
2019-03-11T22:55:29.092Z,94.80
2019-03-11T22:58:00.360Z,95.10
2019-03-11T23:00:58.830Z,95.20
2019-03-11T23:03:32.609Z,95.30
2019-03-11T23:06:04.116Z,95.40
2019-03-11T23:08:35.331Z,95.90
2019-03-11T23:11:06.657Z,95.60
2019-03-11T23:13:37.878Z,95.80
2019-03-11T23:16:09.291Z,95.70
2019-03-11T23:18:40.582Z,95.80
2019-03-11T23:21:11.866Z,95.80
2019-03-11T23:23:43.078Z,95.70
2019-03-11T23:26:14.545Z,95.70
2019-03-11T23:28:45.822Z,95.70
2019-03-11T23:31:17.706Z,95.70
2019-03-11T23:33:48.929Z,95.90
2019-03-11T23:36:20.260Z,95.80
2019-03-11T23:38:51.478Z,95.90
2019-03-11T23:41:24.334Z,95.80
2019-03-11T23:43:55.860Z,96.00
2019-03-11T23:46:27.143Z,96.10
2019-03-11T23:48:58.401Z,95.90
2019-03-11T23:51:29.707Z,95.90
2019-03-11T23:54:01.022Z,96.20
2019-03-11T23:56:32.239Z,96.20
2019-03-11T23:59:03.510Z,96.10
